Time;durP1;ratioP1;P1;durP2;ratioP2;P2;SDS_P1;SDS_P2;PMS_P1;PMS_P2;Temp;Humidity;BMP_temperature;BMP_pressure;BME280_temperature;BME280_humidity;BME280_pressure;Samples;Min_cycle;Max_cycle;Signal;HPM_P1;HPM_P2
2021/05/30 00:02:17;;;;;;;9.40;5.90;;;17.50;76.70;;;;;;5116387;28;20404;-44
2021/05/30 00:04:43;;;;;;;10.30;5.80;;;17.40;76.90;;;;;;5115736;28;20030;-37
2021/05/30 00:07:09;;;;;;;8.85;5.80;;;17.40;77.10;;;;;;5116001;28;20031;-46
2021/05/30 00:09:35;;;;;;;8.93;5.65;;;17.30;77.30;;;;;;5116363;28;20027;-35
2021/05/30 00:12:01;;;;;;;8.63;5.47;;;17.30;77.50;;;;;;5115955;28;20042;-48
2021/05/30 00:14:27;;;;;;;8.82;5.55;;;17.30;77.80;;;;;;5116017;28;20419;-47
2021/05/30 00:16:52;;;;;;;5.78;5.00;;;17.20;78.00;;;;;;5115842;28;20407;-35
2021/05/30 00:19:18;;;;;;;7.93;5.15;;;17.20;77.90;;;;;;5115873;28;20026;-41
2021/05/30 00:21:44;;;;;;;6.63;5.10;;;17.20;78.00;;;;;;5115997;28;20032;-44
2021/05/30 00:24:11;;;;;;;5.18;4.68;;;17.20;78.00;;;;;;5115709;28;20020;-45
2021/05/30 00:26:37;;;;;;;6.80;4.53;;;17.20;77.90;;;;;;5115948;28;20039;-35
2021/05/30 00:29:03;;;;;;;6.53;4.90;;;17.20;77.80;;;;;;5115525;28;20035;-45
2021/05/30 00:31:29;;;;;;;6.00;5.00;;;17.20;77.90;;;;;;5116069;28;20036;-49
2021/05/30 00:33:54;;;;;;;8.88;5.72;;;17.20;77.90;;;;;;5115445;28;20120;-48
2021/05/30 00:36:21;;;;;;;6.90;5.38;;;17.20;78.10;;;;;;5115592;28;20063;-35
2021/05/30 00:38:46;;;;;;;6.43;5.82;;;17.20;78.10;;;;;;5115610;28;20032;-47
2021/05/30 00:41:12;;;;;;;6.53;5.88;;;17.10;78.00;;;;;;5115520;28;20038;-44
2021/05/30 00:43:49;;;;;;;6.47;5.78;;;17.10;78.10;;;;;;5115719;28;20110;-36
2021/05/30 00:46:15;;;;;;;6.68;5.47;;;17.10;78.10;;;;;;5119507;28;20034;-36
2021/05/30 00:48:42;;;;;;;6.15;5.32;;;17.00;78.30;;;;;;5119208;28;20020;-36
2021/05/30 00:51:08;;;;;;;6.22;5.50;;;17.00;78.60;;;;;;5119226;28;20058;-44
2021/05/30 00:53:35;;;;;;;7.30;5.50;;;16.90;78.60;;;;;;5119036;28;20019;-36
2021/05/30 00:56:09;;;;;;;7.22;5.60;;;16.90;78.60;;;;;;5117903;28;20059;-44
2021/05/30 00:58:35;;;;;;;7.45;6.03;;;16.90;78.60;;;;;;5119010;28;20039;-35
2021/05/30 01:01:01;;;;;;;7.78;6.57;;;16.90;78.80;;;;;;5118874;28;20114;-36
2021/05/30 01:03:27;;;;;;;9.43;5.40;;;16.90;78.90;;;;;;5117711;28;20055;-36
2021/05/30 01:05:54;;;;;;;14.88;6.50;;;16.80;78.70;;;;;;5118831;28;20040;-37
2021/05/30 01:08:29;;;;;;;9.55;5.82;;;16.80;78.90;;;;;;5118937;28;20031;-48
2021/05/30 01:10:57;;;;;;;7.18;6.28;;;16.70;79.00;;;;;;5118886;28;20088;-49
2021/05/30 01:13:23;;;;;;;8.07;6.30;;;16.70;79.30;;;;;;5118683;28;20031;-44
2021/05/30 01:15:50;;;;;;;11.10;7.72;;;16.60;79.30;;;;;;5118869;28;20106;-45
2021/05/30 01:18:19;;;;;;;8.10;6.60;;;16.60;79.70;;;;;;5118733;28;20020;-36
2021/05/30 01:20:45;;;;;;;16.85;6.95;;;16.60;79.80;;;;;;5118573;28;20023;-44
2021/05/30 01:23:12;;;;;;;12.63;7.45;;;16.50;79.70;;;;;;5117393;28;20030;-37
2021/05/30 01:25:38;;;;;;;10.18;6.07;;;16.50;79.90;;;;;;5118316;28;20094;-46
2021/05/30 01:28:05;;;;;;;9.75;7.03;;;16.40;79.90;;;;;;5118487;28;20106;-48
2021/05/30 01:30:32;;;;;;;11.73;7.60;;;16.40;80.00;;;;;;5118609;27;20027;-49
2021/05/30 01:32:58;;;;;;;7.85;7.05;;;16.40;80.20;;;;;;5118403;28;20047;-35
2021/05/30 01:35:24;;;;;;;8.80;7.13;;;16.40;80.20;;;;;;5118665;28;20315;-49
2021/05/30 01:37:51;;;;;;;10.57;7.50;;;16.30;80.30;;;;;;5117832;28;20050;-44
2021/05/30 01:40:18;;;;;;;9.93;6.63;;;16.30;80.40;;;;;;5118183;28;20043;-37
2021/05/30 01:42:48;;;;;;;12.35;8.48;;;16.20;80.40;;;;;;5118539;28;20028;-35
2021/05/30 01:45:15;;;;;;;11.13;8.40;;;16.20;80.70;;;;;;5118236;27;20415;-45
2021/05/30 01:47:42;;;;;;;11.38;7.90;;;16.10;80.80;;;;;;5118692;28;20138;-35
2021/05/30 01:50:11;;;;;;;10.65;7.25;;;16.10;81.00;;;;;;5118373;28;20118;-36
2021/05/30 01:52:37;;;;;;;9.43;7.28;;;16.10;81.10;;;;;;5118018;28;20039;-45
2021/05/30 01:55:05;;;;;;;9.15;7.55;;;16.10;81.20;;;;;;5117744;28;20088;-45
2021/05/30 01:57:39;;;;;;;7.65;6.60;;;16.00;81.50;;;;;;5118238;28;20027;-36
2021/05/30 02:00:06;;;;;;;9.10;7.07;;;16.00;81.70;;;;;;5118088;28;20044;-47
2021/05/30 02:02:32;;;;;;;9.65;6.50;;;16.00;81.90;;;;;;5118270;28;20026;-47
2021/05/30 02:04:57;;;;;;;6.30;5.63;;;16.00;82.00;;;;;;5117633;28;20438;-36
2021/05/30 02:07:23;;;;;;;8.52;6.40;;;16.00;81.80;;;;;;5118061;28;20027;-35
2021/05/30 02:09:49;;;;;;;9.00;6.07;;;16.00;81.80;;;;;;5117712;28;20027;-45
2021/05/30 02:12:16;;;;;;;7.68;5.85;;;16.10;81.70;;;;;;5117983;28;20034;-45
2021/05/30 02:14:41;;;;;;;7.07;6.38;;;16.10;81.70;;;;;;5118011;28;20039;-47
2021/05/30 02:17:07;;;;;;;8.45;6.20;;;16.10;81.60;;;;;;5117629;28;20412;-39
2021/05/30 02:19:33;;;;;;;9.48;6.82;;;16.10;81.50;;;;;;5117850;28;20024;-46
2021/05/30 02:22:00;;;;;;;13.30;6.88;;;16.10;81.50;;;;;;5117513;28;20028;-36
2021/05/30 02:24:26;;;;;;;9.60;6.05;;;16.10;81.50;;;;;;5117702;28;20123;-44
2021/05/30 02:26:52;;;;;;;7.75;6.95;;;16.00;81.50;;;;;;5117208;28;20059;-35
2021/05/30 02:29:38;;;;;;;8.32;6.40;;;16.10;81.70;;;;;;5117443;28;20157;-47
2021/05/30 02:32:05;;;;;;;7.05;5.78;;;16.10;81.50;;;;;;5117482;28;20034;-36
2021/05/30 02:34:31;;;;;;;12.23;6.75;;;16.10;81.80;;;;;;5117339;28;20032;-46
2021/05/30 02:36:57;;;;;;;6.55;5.25;;;16.10;81.90;;;;;;5116715;28;20052;-37
2021/05/30 02:39:23;;;;;;;6.90;5.07;;;16.10;81.80;;;;;;5117109;28;20019;-44
2021/05/30 02:41:48;;;;;;;7.13;4.32;;;16.10;81.80;;;;;;5117275;28;20028;-45
2021/05/30 02:44:14;;;;;;;6.80;4.78;;;16.10;81.40;;;;;;5117049;28;20120;-37
2021/05/30 02:46:40;;;;;;;8.52;4.20;;;16.10;81.30;;;;;;5117299;28;20028;-36
2021/05/30 02:49:06;;;;;;;6.32;4.18;;;16.20;81.20;;;;;;5116772;28;20207;-36
2021/05/30 02:51:32;;;;;;;6.78;4.72;;;16.20;81.00;;;;;;5117077;28;20039;-35
2021/05/30 02:53:58;;;;;;;7.45;4.30;;;16.20;80.90;;;;;;5116380;28;20104;-45
2021/05/30 02:56:24;;;;;;;6.45;4.18;;;16.20;80.90;;;;;;5116809;28;20058;-36
2021/05/30 02:58:50;;;;;;;6.10;4.22;;;16.20;80.80;;;;;;5116653;28;20407;-46
2021/05/30 03:01:15;;;;;;;5.25;3.83;;;16.30;80.70;;;;;;5116626;28;20108;-36
2021/05/30 03:03:41;;;;;;;7.03;4.00;;;16.30;80.60;;;;;;5116837;28;20157;-35
2021/05/30 03:06:06;;;;;;;5.28;3.80;;;16.40;80.50;;;;;;5116783;28;20494;-47
2021/05/30 03:08:32;;;;;;;5.10;3.97;;;16.40;80.30;;;;;;5116596;28;20039;-48
2021/05/30 03:10:58;;;;;;;4.30;3.80;;;16.40;80.60;;;;;;5116491;28;20040;-36
2021/05/30 03:13:23;;;;;;;7.47;4.00;;;16.50;80.10;;;;;;5116645;28;20078;-35
2021/05/30 03:15:49;;;;;;;9.63;4.30;;;16.50;79.90;;;;;;5116449;28;20062;-36
2021/05/30 03:18:15;;;;;;;8.52;4.22;;;16.50;79.70;;;;;;5116309;28;20043;-45
2021/05/30 03:20:40;;;;;;;5.40;3.90;;;16.50;79.50;;;;;;5116376;28;20069;-39
2021/05/30 03:23:08;;;;;;;5.38;3.90;;;16.60;79.50;;;;;;5116640;28;20032;-35
2021/05/30 03:25:34;;;;;;;5.20;4.10;;;16.60;79.50;;;;;;5116166;28;20028;-47
2021/05/30 03:28:00;;;;;;;3.75;3.35;;;16.60;79.50;;;;;;5116550;28;20024;-36
2021/05/30 03:30:25;;;;;;;5.40;3.70;;;16.60;79.30;;;;;;5116364;28;20032;-37
2021/05/30 03:32:51;;;;;;;5.75;4.00;;;16.60;79.40;;;;;;5116660;28;20039;-36
2021/05/30 03:35:17;;;;;;;7.63;3.92;;;16.70;79.30;;;;;;5116413;28;20342;-39
2021/05/30 03:37:42;;;;;;;9.73;3.97;;;16.70;79.20;;;;;;5116156;28;20059;-45
2021/05/30 03:42:53;;;;;;;6.90;4.35;;;16.80;79.10;;;;;;5116824;28;20039;-46
2021/05/30 03:45:21;;;;;;;8.52;3.85;;;16.70;78.90;;;;;;5116329;28;20024;-45
2021/05/30 03:47:47;;;;;;;7.00;3.97;;;16.80;79.00;;;;;;5116557;28;20048;-36
2021/05/30 03:50:13;;;;;;;5.75;3.65;;;16.80;78.90;;;;;;5116383;28;20098;-36
2021/05/30 03:52:39;;;;;;;8.55;4.20;;;16.80;78.70;;;;;;5116561;28;20036;-36
2021/05/30 03:55:05;;;;;;;8.00;4.20;;;16.90;78.60;;;;;;5116066;28;20080;-44
2021/05/30 03:57:32;;;;;;;6.78;4.28;;;16.90;78.40;;;;;;5116272;28;20118;-36
2021/05/30 04:00:05;;;;;;;8.65;4.85;;;16.90;78.20;;;;;;5116090;28;20046;-47
2021/05/30 04:02:30;;;;;;;11.88;4.80;;;16.90;78.30;;;;;;5115790;28;20414;-49
2021/05/30 04:04:56;;;;;;;4.47;4.07;;;16.90;78.30;;;;;;5115904;28;20051;-49
2021/05/30 04:07:21;;;;;;;5.78;4.60;;;16.90;78.20;;;;;;5116139;28;20035;-35
2021/05/30 04:09:47;;;;;;;11.35;4.88;;;17.00;78.30;;;;;;5115812;28;20035;-36
2021/05/30 04:12:13;;;;;;;5.28;3.97;;;17.00;78.20;;;;;;5116122;28;20319;-36
2021/05/30 04:14:38;;;;;;;9.05;4.60;;;17.00;77.90;;;;;;5115946;28;20035;-49
2021/05/30 04:17:04;;;;;;;9.10;4.88;;;17.10;77.70;;;;;;5116047;28;20114;-35
2021/05/30 04:19:30;;;;;;;5.18;4.15;;;17.10;77.70;;;;;;5117377;28;20015;-46
2021/05/30 04:21:55;;;;;;;4.95;3.80;;;17.10;77.20;;;;;;5119517;27;20084;-49
2021/05/30 04:24:21;;;;;;;5.78;4.00;;;17.20;77.00;;;;;;5119735;28;20039;-46
2021/05/30 04:26:47;;;;;;;6.05;4.10;;;17.20;76.70;;;;;;5119963;28;20039;-36
2021/05/30 04:29:12;;;;;;;6.15;4.30;;;17.20;76.60;;;;;;5119710;27;20035;-45
2021/05/30 04:31:38;;;;;;;6.75;4.10;;;17.20;76.40;;;;;;5119662;28;20031;-48
2021/05/30 04:34:04;;;;;;;8.15;4.57;;;17.30;76.20;;;;;;5119602;28;20030;-36
2021/05/30 04:36:29;;;;;;;7.65;4.43;;;17.30;76.00;;;;;;5119036;28;20039;-49
2021/05/30 04:38:55;;;;;;;6.00;3.30;;;17.30;76.10;;;;;;5119288;28;20039;-46
2021/05/30 04:41:21;;;;;;;3.63;3.05;;;17.40;76.00;;;;;;5119463;28;20054;-48
2021/05/30 04:43:46;;;;;;;4.22;3.00;;;17.50;75.20;;;;;;5119099;28;20378;-35
2021/05/30 04:46:12;;;;;;;3.38;2.50;;;17.50;74.30;;;;;;5119308;28;20028;-36
2021/05/30 04:48:38;;;;;;;2.97;2.53;;;17.60;74.10;;;;;;5119142;28;20031;-49
2021/05/30 04:51:13;;;;;;;6.28;2.63;;;17.70;73.20;;;;;;5119254;28;20084;-36
2021/05/30 04:53:44;;;;;;;7.78;2.50;;;17.70;72.60;;;;;;5119292;28;20340;-36
2021/05/30 04:56:11;;;;;;;3.10;2.25;;;17.80;72.10;;;;;;5119036;28;20032;-36
2021/05/30 04:58:37;;;;;;;3.38;2.20;;;17.90;71.90;;;;;;5117676;28;20039;-36
2021/05/30 05:01:05;;;;;;;3.10;2.40;;;17.90;71.90;;;;;;5119038;28;20024;-45
2021/05/30 05:03:32;;;;;;;2.85;2.22;;;18.00;71.40;;;;;;5118720;28;20031;-47
2021/05/30 05:05:58;;;;;;;2.30;2.10;;;18.10;71.20;;;;;;5118774;28;20031;-46
2021/05/30 05:08:24;;;;;;;2.28;2.08;;;18.20;70.80;;;;;;5118415;28;20476;-47
2021/05/30 05:10:51;;;;;;;6.78;2.67;;;18.30;69.60;;;;;;5118770;28;20023;-49
2021/05/30 05:13:17;;;;;;;2.80;2.13;;;18.30;69.30;;;;;;5117544;28;20043;-37
2021/05/30 05:15:48;;;;;;;4.32;2.40;;;18.30;68.60;;;;;;5118389;28;20423;-38
2021/05/30 05:18:15;;;;;;;3.47;2.40;;;18.30;68.20;;;;;;5118679;28;20061;-38
2021/05/30 05:20:42;;;;;;;3.55;2.17;;;18.30;68.20;;;;;;5118683;28;20311;-38
2021/05/30 05:23:07;;;;;;;4.68;2.28;;;18.30;68.00;;;;;;5118419;28;20031;-38
2021/05/30 05:25:35;;;;;;;4.97;2.08;;;18.30;67.90;;;;;;5118565;28;20022;-39
2021/05/30 05:28:02;;;;;;;5.25;2.10;;;18.30;67.70;;;;;;5118240;28;20039;-38
2021/05/30 05:30:28;;;;;;;3.35;2.28;;;18.30;67.70;;;;;;5118043;28;20076;-39
2021/05/30 05:32:53;;;;;;;2.88;2.33;;;18.20;67.70;;;;;;5118601;28;20031;-48
2021/05/30 05:35:19;;;;;;;5.15;2.15;;;18.20;68.20;;;;;;5118111;28;20049;-47
2021/05/30 05:37:45;;;;;;;4.95;2.63;;;18.20;68.60;;;;;;5118132;28;20048;-50
2021/05/30 05:40:11;;;;;;;5.25;2.47;;;18.30;68.00;;;;;;5117975;28;20472;-47
2021/05/30 05:42:37;;;;;;;9.23;2.83;;;18.30;67.80;;;;;;5118572;28;20028;-49
2021/05/30 05:45:04;;;;;;;3.45;2.22;;;18.40;67.80;;;;;;5118195;28;20474;-50
2021/05/30 05:47:30;;;;;;;2.67;2.47;;;18.40;67.70;;;;;;5118370;28;20086;-38
2021/05/30 05:49:55;;;;;;;3.65;2.05;;;18.40;67.60;;;;;;5117891;28;20055;-39
2021/05/30 05:52:21;;;;;;;2.83;2.33;;;18.40;67.60;;;;;;5118195;28;20115;-38
2021/05/30 05:54:49;;;;;;;5.43;2.28;;;18.40;67.50;;;;;;5117388;28;20078;-48
2021/05/30 05:57:15;;;;;;;4.35;2.45;;;18.50;67.40;;;;;;5117995;28;20040;-48
2021/05/30 05:59:41;;;;;;;4.30;2.30;;;18.50;67.10;;;;;;5116715;28;20019;-38
2021/05/30 06:02:06;;;;;;;4.85;2.53;;;18.50;67.00;;;;;;5117332;28;20031;-47
2021/05/30 06:04:32;;;;;;;2.95;2.40;;;18.50;67.20;;;;;;5117807;28;20072;-47
2021/05/30 06:06:59;;;;;;;3.08;2.30;;;18.50;67.20;;;;;;5117669;28;20082;-38
2021/05/30 06:09:25;;;;;;;3.47;2.75;;;18.50;66.40;;;;;;5100258;28;20035;-38
2021/05/30 06:11:51;;;;;;;4.65;2.70;;;18.50;66.40;;;;;;5096939;28;20036;-49
2021/05/30 06:14:16;;;;;;;7.53;2.50;;;18.50;66.40;;;;;;5097135;28;20028;-39
2021/05/30 06:16:42;;;;;;;3.10;2.35;;;18.50;66.70;;;;;;5097066;28;20113;-51
2021/05/30 06:19:08;;;;;;;11.05;3.42;;;18.60;66.90;;;;;;5097300;28;20020;-48
2021/05/30 06:21:34;;;;;;;5.38;3.60;;;18.60;66.70;;;;;;5097141;28;20042;-38
2021/05/30 06:23:59;;;;;;;5.88;3.88;;;18.70;66.50;;;;;;5096574;28;20420;-48
2021/05/30 06:26:25;;;;;;;4.38;2.72;;;18.70;66.60;;;;;;5096674;28;20032;-46
2021/05/30 06:28:51;;;;;;;14.50;7.00;;;18.80;66.30;;;;;;5096723;28;20024;-35
2021/05/30 06:31:17;;;;;;;4.13;2.28;;;18.80;66.30;;;;;;5096323;28;20078;-44
2021/05/30 06:33:42;;;;;;;5.40;2.42;;;18.80;66.30;;;;;;5096296;28;20024;-49
2021/05/30 06:36:08;;;;;;;2.25;1.80;;;18.70;65.80;;;;;;5096013;28;20061;-46
2021/05/30 06:38:34;;;;;;;5.03;2.03;;;18.70;66.00;;;;;;5096109;28;20047;-35
2021/05/30 06:40:59;;;;;;;3.80;2.30;;;18.70;65.60;;;;;;5095971;28;20081;-35
2021/05/30 06:43:25;;;;;;;4.35;3.45;;;18.70;65.60;;;;;;5095582;28;20016;-45
2021/05/30 06:45:51;;;;;;;4.20;2.42;;;18.70;65.10;;;;;;5096415;28;20027;-44
2021/05/30 06:48:19;;;;;;;7.20;2.88;;;18.60;65.40;;;;;;5096295;28;20040;-44
2021/05/30 06:51:11;;;;;;;5.47;3.90;;;18.60;65.50;;;;;;5096230;28;20366;-35
2021/05/30 06:53:31;;;;;;;6.43;2.55;;;18.60;65.40;;;;;;5095904;28;20119;-45
2021/05/30 06:55:58;;;;;;;3.33;2.80;;;18.60;65.50;;;;;;5096052;28;20059;-35
2021/05/30 06:58:24;;;;;;;4.57;3.25;;;18.60;65.30;;;;;;5095999;28;20447;-46
2021/05/30 07:00:50;;;;;;;2.30;2.08;;;18.70;65.50;;;;;;5095909;28;20024;-45
2021/05/30 07:03:15;;;;;;;4.32;2.22;;;18.60;65.70;;;;;;5096084;28;20027;-50
2021/05/30 07:05:41;;;;;;;4.28;2.20;;;18.70;65.50;;;;;;5094583;28;20020;-47
2021/05/30 07:08:07;;;;;;;8.15;4.43;;;18.70;65.40;;;;;;5096189;28;20028;-46
2021/05/30 07:10:32;;;;;;;5.53;2.78;;;18.70;65.40;;;;;;5096109;28;20032;-36
2021/05/30 07:12:58;;;;;;;3.40;2.65;;;18.70;65.40;;;;;;5095479;28;20114;-35
2021/05/30 07:15:24;;;;;;;3.03;2.20;;;18.70;65.00;;;;;;5095993;28;20118;-48
2021/05/30 07:17:49;;;;;;;4.80;3.03;;;18.80;65.00;;;;;;5096177;28;20036;-47
2021/05/30 07:20:15;;;;;;;4.25;3.33;;;18.80;65.10;;;;;;5095540;28;20024;-47
2021/05/30 07:22:41;;;;;;;2.95;2.65;;;18.80;64.80;;;;;;5096320;28;20370;-49
2021/05/30 07:25:07;;;;;;;4.75;2.15;;;18.80;64.60;;;;;;5095910;28;20054;-47
2021/05/30 07:27:33;;;;;;;2.30;2.08;;;18.70;64.50;;;;;;5095736;28;20056;-49
2021/05/30 07:29:59;;;;;;;3.40;3.10;;;18.70;64.50;;;;;;5095873;28;20439;-47
2021/05/30 07:32:24;;;;;;;5.30;2.47;;;18.70;64.70;;;;;;5096123;28;20059;-49
2021/05/30 07:34:50;;;;;;;2.90;2.03;;;18.80;65.20;;;;;;5095323;28;20386;-38
2021/05/30 07:37:16;;;;;;;3.17;2.10;;;18.80;65.10;;;;;;5095354;28;20363;-50
2021/05/30 07:39:41;;;;;;;4.90;2.22;;;18.90;65.00;;;;;;5095530;28;20097;-39
2021/05/30 07:42:09;;;;;;;5.35;2.20;;;19.00;65.00;;;;;;5095718;28;20024;-38
2021/05/30 07:44:35;;;;;;;3.88;2.30;;;19.10;64.70;;;;;;5095870;28;20032;-38
2021/05/30 07:47:00;;;;;;;3.65;2.67;;;19.10;64.60;;;;;;5095292;28;20046;-48
2021/05/30 07:49:26;;;;;;;2.78;2.30;;;19.20;64.40;;;;;;5095125;28;20036;-51
2021/05/30 07:51:53;;;;;;;6.28;4.82;;;19.30;63.50;;;;;;5095641;28;20036;-38
2021/05/30 07:54:19;;;;;;;2.50;2.10;;;19.40;63.60;;;;;;5098340;28;20036;-38
2021/05/30 07:56:45;;;;;;;4.70;2.30;;;19.40;63.60;;;;;;5099323;28;20032;-38
2021/05/30 07:59:11;;;;;;;5.25;2.75;;;19.50;63.70;;;;;;5099450;28;20169;-37
2021/05/30 08:01:37;;;;;;;10.57;4.53;;;19.60;63.80;;;;;;5099353;28;20028;-38
2021/05/30 08:04:03;;;;;;;6.32;3.45;;;19.60;63.50;;;;;;5099587;28;20028;-37
2021/05/30 08:06:33;;;;;;;3.47;2.33;;;19.70;63.20;;;;;;5099212;28;20024;-38
2021/05/30 08:08:59;;;;;;;3.88;2.35;;;19.70;63.00;;;;;;5098969;28;20315;-49
2021/05/30 08:11:26;;;;;;;5.85;3.35;;;19.80;63.00;;;;;;5099657;28;20024;-38
2021/05/30 08:13:51;;;;;;;3.85;2.97;;;19.80;63.00;;;;;;5098981;28;20028;-47
2021/05/30 08:16:19;;;;;;;3.13;2.28;;;19.80;63.10;;;;;;5099347;28;20051;-38
2021/05/30 08:18:44;;;;;;;2.45;1.83;;;19.90;62.90;;;;;;5099121;28;20051;-49
2021/05/30 08:21:10;;;;;;;3.45;2.95;;;20.00;63.20;;;;;;5099303;28;20028;-48
2021/05/30 08:23:38;;;;;;;3.85;2.28;;;20.10;62.70;;;;;;5099443;28;20028;-48
2021/05/30 08:26:04;;;;;;;3.72;2.50;;;20.20;62.30;;;;;;5099001;28;20024;-49
2021/05/30 08:28:30;;;;;;;2.55;2.35;;;20.30;61.80;;;;;;5099058;28;20028;-38
2021/05/30 08:30:55;;;;;;;3.53;2.10;;;20.30;61.60;;;;;;5098820;28;20066;-48
2021/05/30 08:33:21;;;;;;;2.95;2.05;;;20.40;61.30;;;;;;5099573;28;20039;-49
2021/05/30 08:35:47;;;;;;;9.85;2.55;;;20.40;61.40;;;;;;5098395;28;20024;-38
2021/05/30 08:38:12;;;;;;;2.25;2.03;;;20.50;60.80;;;;;;5098879;28;20063;-50
2021/05/30 08:40:38;;;;;;;2.55;2.00;;;20.50;60.50;;;;;;5099076;28;20165;-38
2021/05/30 08:43:04;;;;;;;4.10;1.98;;;20.60;60.00;;;;;;5098644;28;20020;-48
2021/05/30 08:45:29;;;;;;;7.40;4.35;;;20.60;59.90;;;;;;5098560;28;20122;-48
2021/05/30 08:47:55;;;;;;;2.47;2.28;;;20.70;61.10;;;;;;5099085;28;20113;-38
2021/05/30 08:50:21;;;;;;;4.38;2.17;;;20.70;59.10;;;;;;5098609;28;20026;-38
2021/05/30 08:52:46;;;;;;;5.13;3.47;;;20.80;59.00;;;;;;5098712;28;20042;-48
2021/05/30 08:55:12;;;;;;;4.90;1.90;;;20.80;59.10;;;;;;5098182;28;20035;-38
2021/05/30 08:57:39;;;;;;;3.35;2.55;;;20.80;58.60;;;;;;5099076;28;20431;-47
2021/05/30 09:00:07;;;;;;;2.90;1.92;;;20.80;59.10;;;;;;5097934;28;20020;-47
2021/05/30 09:02:32;;;;;;;2.58;2.08;;;20.80;59.30;;;;;;5097982;28;20032;-38
2021/05/30 09:05:06;;;;;;;3.17;1.85;;;20.90;58.70;;;;;;5097337;28;20020;-50
2021/05/30 09:07:47;;;;;;;8.20;2.65;;;21.00;58.70;;;;;;5098324;28;20089;-53
2021/05/30 09:10:16;;;;;;;3.70;1.80;;;21.00;58.40;;;;;;5098344;28;20502;-47
2021/05/30 09:12:42;;;;;;;4.13;1.95;;;21.10;59.00;;;;;;5098587;28;20043;-38
2021/05/30 09:15:48;;;;;;;4.25;2.10;;;21.20;59.00;;;;;;5098139;28;20028;-39
2021/05/30 09:18:18;;;;;;;2.55;2.22;;;21.30;58.70;;;;;;5098245;28;20047;-49
2021/05/30 09:20:54;;;;;;;5.72;2.30;;;21.40;57.90;;;;;;5097938;28;20113;-48
2021/05/30 09:23:42;;;;;;;3.13;1.98;;;21.50;57.90;;;;;;5098055;28;20070;-51
2021/05/30 09:26:20;;;;;;;4.72;2.40;;;21.50;58.00;;;;;;5097909;28;20115;-38
2021/05/30 09:29:08;;;;;;;3.35;2.00;;;21.50;57.70;;;;;;5097797;28;20081;-44
2021/05/30 09:31:52;;;;;;;2.45;2.25;;;21.60;57.80;;;;;;5098260;28;20077;-38
2021/05/30 09:34:30;;;;;;;2.00;1.55;;;21.70;57.60;;;;;;5098075;28;20073;-49
2021/05/30 09:36:57;;;;;;;3.60;2.10;;;21.70;56.80;;;;;;5097153;28;20056;-38
2021/05/30 09:39:39;;;;;;;2.20;2.00;;;21.70;56.70;;;;;;5097966;28;20024;-49
2021/05/30 09:42:26;;;;;;;6.05;2.35;;;21.70;56.70;;;;;;5097819;28;20462;-38
2021/05/30 09:45:00;;;;;;;10.73;2.40;;;21.80;56.90;;;;;;5097535;28;20438;-38
2021/05/30 09:47:44;;;;;;;1.50;1.33;;;21.80;56.40;;;;;;5097776;28;20032;-48
2021/05/30 09:50:13;;;;;;;3.15;1.90;;;21.80;56.10;;;;;;5097317;28;20107;-52
2021/05/30 09:52:46;;;;;;;2.45;1.35;;;21.80;55.70;;;;;;5097929;28;20036;-38
2021/05/30 09:55:14;;;;;;;3.03;1.50;;;21.90;56.00;;;;;;5096940;28;20123;-38
2021/05/30 09:57:41;;;;;;;2.78;1.85;;;21.90;55.90;;;;;;5097238;28;20032;-53
2021/05/30 10:00:21;;;;;;;2.55;1.50;;;21.90;55.30;;;;;;5097303;28;20054;-38
2021/05/30 10:02:47;;;;;;;2.00;1.80;;;22.00;54.70;;;;;;5097618;28;20027;-38
2021/05/30 10:05:12;;;;;;;2.85;1.70;;;22.00;55.30;;;;;;5096924;28;20024;-51
2021/05/30 10:07:39;;;;;;;2.10;1.88;;;22.00;54.60;;;;;;5097751;28;20038;-50
2021/05/30 10:10:05;;;;;;;2.17;1.75;;;22.00;54.60;;;;;;5096935;28;20035;-51
2021/05/30 10:12:31;;;;;;;3.75;1.70;;;22.00;54.80;;;;;;5095811;28;20036;-38
2021/05/30 10:14:56;;;;;;;3.50;1.90;;;22.00;55.30;;;;;;5096572;28;20093;-37
2021/05/30 10:17:22;;;;;;;2.22;1.50;;;22.10;55.50;;;;;;5095956;28;20107;-46
2021/05/30 10:19:50;;;;;;;1.98;1.75;;;22.10;54.60;;;;;;5097181;28;20376;-37
2021/05/30 10:22:19;;;;;;;1.92;1.63;;;22.20;53.90;;;;;;5097100;28;20043;-37
2021/05/30 10:24:46;;;;;;;2.00;1.40;;;22.20;54.80;;;;;;5096514;28;20024;-48
2021/05/30 10:27:23;;;;;;;6.05;1.90;;;22.20;54.90;;;;;;5096909;28;20044;-49
2021/05/30 10:30:07;;;;;;;2.42;1.63;;;22.20;55.30;;;;;;5096498;28;20067;-37
2021/05/30 10:32:44;;;;;;;6.03;2.10;;;22.30;55.10;;;;;;5096928;28;20039;-48
2021/05/30 10:35:17;;;;;;;1.80;1.63;;;22.30;55.20;;;;;;5096060;28;20055;-37
2021/05/30 10:37:47;;;;;;;1.95;1.75;;;22.40;55.30;;;;;;5096156;28;20043;-37
2021/05/30 10:40:22;;;;;;;4.38;2.53;;;22.40;54.60;;;;;;5096694;28;20114;-37
2021/05/30 10:43:09;;;;;;;5.38;2.13;;;22.40;55.30;;;;;;5096807;28;20107;-49
2021/05/30 10:45:47;;;;;;;3.55;1.80;;;22.50;55.30;;;;;;5096567;28;20027;-37
2021/05/30 10:48:18;;;;;;;4.25;2.10;;;22.50;54.50;;;;;;5096370;28;20032;-47
2021/05/30 10:53:50;;;;;;;2.85;2.30;;;22.50;54.70;;;;;;5096066;28;20089;-37
2021/05/30 10:56:30;;;;;;;4.72;1.85;;;22.60;55.00;;;;;;5096197;28;20040;-37
2021/05/30 10:59:11;;;;;;;1.80;1.70;;;22.60;54.40;;;;;;5095929;28;20050;-45
2021/05/30 11:01:40;;;;;;;1.52;1.42;;;22.60;53.80;;;;;;5096247;28;20043;-37
2021/05/30 11:04:24;;;;;;;4.55;2.10;;;22.60;53.60;;;;;;5096249;28;20032;-37
2021/05/30 11:06:51;;;;;;;2.83;1.63;;;22.60;52.90;;;;;;5096163;28;20031;-37
2021/05/30 11:09:17;;;;;;;1.50;1.40;;;22.60;52.30;;;;;;5096231;28;20102;-47
2021/05/30 11:11:43;;;;;;;5.20;1.90;;;22.50;52.50;;;;;;5096216;28;20543;-37
2021/05/30 11:14:13;;;;;;;3.35;1.63;;;22.50;53.00;;;;;;5095588;28;20050;-37
2021/05/30 11:16:47;;;;;;;1.55;1.13;;;22.50;53.00;;;;;;5095900;28;20052;-37
2021/05/30 11:19:17;;;;;;;2.38;1.85;;;22.50;53.50;;;;;;5095791;28;20069;-51
2021/05/30 11:21:48;;;;;;;2.47;1.67;;;22.60;53.60;;;;;;5095983;28;20054;-50
2021/05/30 11:24:19;;;;;;;3.80;1.55;;;22.60;53.20;;;;;;5095623;28;20075;-47
2021/05/30 11:27:00;;;;;;;3.30;1.75;;;22.70;53.00;;;;;;5096014;28;20028;-37
2021/05/30 11:29:28;;;;;;;1.58;1.48;;;22.70;52.50;;;;;;5095603;28;20324;-37
2021/05/30 11:31:54;;;;;;;1.70;1.60;;;22.80;52.60;;;;;;5095290;28;20051;-37
2021/05/30 11:34:20;;;;;;;2.15;1.70;;;22.80;52.60;;;;;;5095667;28;20028;-48
2021/05/30 11:36:47;;;;;;;1.67;1.30;;;22.90;52.60;;;;;;5095337;28;20407;-50
2021/05/30 11:39:18;;;;;;;1.75;1.55;;;23.00;52.40;;;;;;5095505;28;20051;-37
2021/05/30 11:41:51;;;;;;;2.65;1.70;;;23.10;52.40;;;;;;5095791;28;20032;-37
2021/05/30 11:44:25;;;;;;;2.92;1.65;;;23.20;51.50;;;;;;5095794;28;20182;-37
2021/05/30 11:46:56;;;;;;;6.68;2.22;;;23.20;51.30;;;;;;5095775;28;20032;-48
2021/05/30 11:49:37;;;;;;;3.38;1.63;;;23.30;51.70;;;;;;5095834;28;20047;-49
2021/05/30 11:52:05;;;;;;;1.70;1.60;;;23.30;50.90;;;;;;5095715;28;20036;-37
2021/05/30 11:54:44;;;;;;;2.67;1.27;;;23.40;51.70;;;;;;5095687;28;20372;-47
2021/05/30 11:57:12;;;;;;;1.60;1.50;;;23.50;51.50;;;;;;5095075;28;20120;-48
2021/05/30 11:59:59;;;;;;;1.48;1.38;;;23.50;51.20;;;;;;5095256;28;20046;-37
2021/05/30 12:02:32;;;;;;;1.80;1.63;;;23.50;51.20;;;;;;5095639;28;20028;-37
2021/05/30 12:05:03;;;;;;;3.38;1.60;;;23.60;51.20;;;;;;5095504;28;20029;-37
2021/05/30 12:07:29;;;;;;;7.55;3.58;;;23.70;51.20;;;;;;5095690;28;20103;-48
2021/05/30 12:09:58;;;;;;;5.78;2.55;;;23.80;51.50;;;;;;5095628;28;20063;-47
2021/05/30 12:12:44;;;;;;;6.03;2.40;;;23.80;51.80;;;;;;5095626;28;20056;-37
2021/05/30 12:15:23;;;;;;;3.20;2.40;;;23.80;51.40;;;;;;5095084;28;20043;-48
2021/05/30 12:17:55;;;;;;;3.25;2.40;;;23.90;52.10;;;;;;5095759;28;20107;-37
2021/05/30 12:20:26;;;;;;;2.65;2.40;;;23.90;51.90;;;;;;5095245;28;20029;-50
2021/05/30 12:23:04;;;;;;;3.20;2.70;;;23.80;52.10;;;;;;5095640;28;20371;-38
2021/05/30 12:25:30;;;;;;;3.10;2.47;;;23.80;52.20;;;;;;5095265;28;20024;-37
2021/05/30 12:27:56;;;;;;;4.05;2.72;;;23.90;51.90;;;;;;5094707;28;20089;-38
2021/05/30 12:30:22;;;;;;;3.72;1.80;;;23.80;51.90;;;;;;5095452;28;20056;-38
2021/05/30 12:32:50;;;;;;;2.00;1.80;;;23.80;51.80;;;;;;5095442;28;20031;-47
2021/05/30 12:35:15;;;;;;;2.60;1.48;;;23.80;51.20;;;;;;5095235;28;20424;-51
2021/05/30 12:37:45;;;;;;;3.05;1.65;;;23.70;50.70;;;;;;5094968;28;20101;-49
2021/05/30 12:40:13;;;;;;;1.73;1.60;;;23.60;51.00;;;;;;5096524;28;20223;-37
2021/05/30 12:42:40;;;;;;;3.72;2.95;;;23.50;51.50;;;;;;5099235;28;20020;-46
2021/05/30 12:45:11;;;;;;;2.72;1.83;;;23.30;52.10;;;;;;5098627;28;20040;-37
2021/05/30 12:47:44;;;;;;;3.03;2.20;;;23.20;52.30;;;;;;5098565;28;20058;-37
2021/05/30 12:50:12;;;;;;;2.42;1.95;;;23.10;52.80;;;;;;5098377;28;20141;-37
2021/05/30 12:52:47;;;;;;;3.65;2.10;;;23.10;53.20;;;;;;5099160;28;20384;-50
2021/05/30 12:55:15;;;;;;;2.67;2.22;;;23.10;53.70;;;;;;5098188;28;20085;-50
2021/05/30 12:57:49;;;;;;;5.82;3.17;;;23.10;53.60;;;;;;5098871;28;20024;-37